sensor_id;sensor_type;location;lat;lon;timestamp;P1;durP1;ratioP1;P2;durP2;ratioP2
79566;SDS011;69030;48.126;7.816;2024-03-08T00:00:08;28.85;;;12.88;;
79566;SDS011;69030;48.126;7.816;2024-03-08T00:02:36;28.27;;;11.63;;
79566;SDS011;69030;48.126;7.816;2024-03-08T00:05:05;26.27;;;14.23;;
79566;SDS011;69030;48.126;7.816;2024-03-08T00:07:37;29.92;;;13.30;;
79566;SDS011;69030;48.126;7.816;2024-03-08T00:10:03;29.67;;;12.48;;
79566;SDS011;69030;48.126;7.816;2024-03-08T00:12:29;28.20;;;14.70;;
79566;SDS011;69030;48.126;7.816;2024-03-08T00:14:56;31.83;;;13.85;;
79566;SDS011;69030;48.126;7.816;2024-03-08T00:17:23;27.25;;;14.63;;
79566;SDS011;69030;48.126;7.816;2024-03-08T00:19:50;29.23;;;12.50;;
79566;SDS011;69030;48.126;7.816;2024-03-08T00:22:16;27.05;;;13.82;;
79566;SDS011;69030;48.126;7.816;2024-03-08T00:24:42;29.15;;;14.00;;
79566;SDS011;69030;48.126;7.816;2024-03-08T00:27:09;27.58;;;13.65;;
79566;SDS011;69030;48.126;7.816;2024-03-08T00:29:36;26.27;;;12.00;;
79566;SDS011;69030;48.126;7.816;2024-03-08T00:32:03;30.25;;;12.88;;
79566;SDS011;69030;48.126;7.816;2024-03-08T00:34:31;25.90;;;13.10;;
79566;SDS011;69030;48.126;7.816;2024-03-08T00:36:57;29.17;;;14.38;;
79566;SDS011;69030;48.126;7.816;2024-03-08T00:39:23;26.10;;;14.38;;
79566;SDS011;69030;48.126;7.816;2024-03-08T00:41:51;26.33;;;13.88;;
79566;SDS011;69030;48.126;7.816;2024-03-08T00:44:17;28.73;;;11.43;;
79566;SDS011;69030;48.126;7.816;2024-03-08T00:46:43;27.73;;;13.95;;
79566;SDS011;69030;48.126;7.816;2024-03-08T00:49:08;31.13;;;12.70;;
79566;SDS011;69030;48.126;7.816;2024-03-08T00:51:34;24.65;;;11.13;;
79566;SDS011;69030;48.126;7.816;2024-03-08T00:53:59;26.13;;;12.52;;
79566;SDS011;69030;48.126;7.816;2024-03-08T00:56:25;26.48;;;12.23;;
79566;SDS011;69030;48.126;7.816;2024-03-08T00:58:51;26.27;;;12.98;;
79566;SDS011;69030;48.126;7.816;2024-03-08T01:03:44;23.60;;;12.20;;
79566;SDS011;69030;48.126;7.816;2024-03-08T01:06:09;28.23;;;11.52;;
79566;SDS011;69030;48.126;7.816;2024-03-08T01:08:36;33.05;;;14.68;;
79566;SDS011;69030;48.126;7.816;2024-03-08T01:11:03;24.35;;;13.57;;
79566;SDS011;69030;48.126;7.816;2024-03-08T01:13:30;28.15;;;12.25;;
79566;SDS011;69030;48.126;7.816;2024-03-08T01:15:56;19.35;;;10.70;;
79566;SDS011;69030;48.126;7.816;2024-03-08T01:18:21;22.50;;;12.82;;
79566;SDS011;69030;48.126;7.816;2024-03-08T01:20:49;19.73;;;9.93;;
79566;SDS011;69030;48.126;7.816;2024-03-08T01:23:14;27.25;;;12.70;;
79566;SDS011;69030;48.126;7.816;2024-03-08T01:25:40;22.65;;;10.13;;
79566;SDS011;69030;48.126;7.816;2024-03-08T01:28:06;23.23;;;13.07;;
79566;SDS011;69030;48.126;7.816;2024-03-08T01:30:32;26.80;;;10.60;;
79566;SDS011;69030;48.126;7.816;2024-03-08T01:32:59;28.10;;;12.50;;
79566;SDS011;69030;48.126;7.816;2024-03-08T01:35:25;27.65;;;14.50;;
79566;SDS011;69030;48.126;7.816;2024-03-08T01:37:52;27.15;;;13.10;;
79566;SDS011;69030;48.126;7.816;2024-03-08T01:40:17;25.10;;;12.27;;
79566;SDS011;69030;48.126;7.816;2024-03-08T01:42:43;24.00;;;13.57;;
79566;SDS011;69030;48.126;7.816;2024-03-08T01:45:09;19.98;;;10.82;;
79566;SDS011;69030;48.126;7.816;2024-03-08T01:47:35;25.77;;;10.77;;
79566;SDS011;69030;48.126;7.816;2024-03-08T01:50:01;23.10;;;11.50;;
79566;SDS011;69030;48.126;7.816;2024-03-08T01:52:31;29.83;;;15.70;;
79566;SDS011;69030;48.126;7.816;2024-03-08T01:55:01;30.58;;;12.57;;
79566;SDS011;69030;48.126;7.816;2024-03-08T01:57:34;24.67;;;12.73;;
79566;SDS011;69030;48.126;7.816;2024-03-08T02:00:00;25.33;;;10.65;;
79566;SDS011;69030;48.126;7.816;2024-03-08T02:02:33;30.67;;;13.75;;
79566;SDS011;69030;48.126;7.816;2024-03-08T02:05:00;28.42;;;15.43;;
79566;SDS011;69030;48.126;7.816;2024-03-08T02:07:26;28.67;;;13.82;;
79566;SDS011;69030;48.126;7.816;2024-03-08T02:09:52;24.05;;;13.85;;
79566;SDS011;69030;48.126;7.816;2024-03-08T02:12:17;19.98;;;9.70;;
79566;SDS011;69030;48.126;7.816;2024-03-08T02:14:45;28.00;;;14.05;;
79566;SDS011;69030;48.126;7.816;2024-03-08T02:17:12;23.60;;;10.82;;
79566;SDS011;69030;48.126;7.816;2024-03-08T02:19:38;28.42;;;11.70;;
79566;SDS011;69030;48.126;7.816;2024-03-08T02:22:04;30.52;;;11.10;;
79566;SDS011;69030;48.126;7.816;2024-03-08T02:24:32;29.30;;;12.98;;
79566;SDS011;69030;48.126;7.816;2024-03-08T02:26:58;22.40;;;11.65;;
79566;SDS011;69030;48.126;7.816;2024-03-08T02:29:24;27.10;;;13.48;;
79566;SDS011;69030;48.126;7.816;2024-03-08T02:31:52;24.65;;;15.05;;
79566;SDS011;69030;48.126;7.816;2024-03-08T02:36:43;21.73;;;10.05;;
79566;SDS011;69030;48.126;7.816;2024-03-08T02:39:09;24.13;;;11.40;;
79566;SDS011;69030;48.126;7.816;2024-03-08T02:41:35;26.85;;;11.95;;
79566;SDS011;69030;48.126;7.816;2024-03-08T02:44:01;29.30;;;10.85;;
79566;SDS011;69030;48.126;7.816;2024-03-08T02:46:27;27.52;;;14.27;;
79566;SDS011;69030;48.126;7.816;2024-03-08T02:48:52;27.20;;;14.68;;
79566;SDS011;69030;48.126;7.816;2024-03-08T02:51:18;23.70;;;12.93;;
79566;SDS011;69030;48.126;7.816;2024-03-08T02:53:45;31.80;;;14.63;;
79566;SDS011;69030;48.126;7.816;2024-03-08T02:56:10;27.67;;;12.82;;
79566;SDS011;69030;48.126;7.816;2024-03-08T02:58:38;23.50;;;10.85;;
79566;SDS011;69030;48.126;7.816;2024-03-08T03:01:05;29.83;;;12.18;;
79566;SDS011;69030;48.126;7.816;2024-03-08T03:03:30;27.02;;;12.88;;
79566;SDS011;69030;48.126;7.816;2024-03-08T03:05:56;27.23;;;10.88;;
79566;SDS011;69030;48.126;7.816;2024-03-08T03:08:21;32.53;;;10.93;;
79566;SDS011;69030;48.126;7.816;2024-03-08T03:10:47;24.90;;;13.35;;
79566;SDS011;69030;48.126;7.816;2024-03-08T03:13:12;24.83;;;13.02;;
79566;SDS011;69030;48.126;7.816;2024-03-08T03:15:40;26.67;;;16.38;;
79566;SDS011;69030;48.126;7.816;2024-03-08T03:18:08;27.08;;;11.98;;
79566;SDS011;69030;48.126;7.816;2024-03-08T03:20:34;23.75;;;13.38;;
79566;SDS011;69030;48.126;7.816;2024-03-08T03:23:05;26.40;;;11.18;;
79566;SDS011;69030;48.126;7.816;2024-03-08T03:28:00;19.88;;;9.35;;
79566;SDS011;69030;48.126;7.816;2024-03-08T03:30:29;23.50;;;12.40;;
79566;SDS011;69030;48.126;7.816;2024-03-08T03:32:58;25.38;;;10.98;;
79566;SDS011;69030;48.126;7.816;2024-03-08T03:35:25;23.73;;;10.70;;
79566;SDS011;69030;48.126;7.816;2024-03-08T03:37:57;24.90;;;11.43;;
79566;SDS011;69030;48.126;7.816;2024-03-08T03:40:32;19.88;;;11.38;;
79566;SDS011;69030;48.126;7.816;2024-03-08T03:42:58;23.90;;;9.75;;
79566;SDS011;69030;48.126;7.816;2024-03-08T03:45:24;28.75;;;10.48;;
79566;SDS011;69030;48.126;7.816;2024-03-08T03:47:49;21.67;;;10.18;;
79566;SDS011;69030;48.126;7.816;2024-03-08T03:50:15;23.73;;;11.82;;
79566;SDS011;69030;48.126;7.816;2024-03-08T03:52:41;22.98;;;11.93;;
79566;SDS011;69030;48.126;7.816;2024-03-08T03:55:07;19.33;;;12.40;;
79566;SDS011;69030;48.126;7.816;2024-03-08T03:57:33;22.52;;;9.20;;
79566;SDS011;69030;48.126;7.816;2024-03-08T03:59:58;22.95;;;11.27;;
79566;SDS011;69030;48.126;7.816;2024-03-08T04:02:24;22.67;;;11.27;;
79566;SDS011;69030;48.126;7.816;2024-03-08T04:04:51;24.70;;;10.63;;
79566;SDS011;69030;48.126;7.816;2024-03-08T04:07:17;24.92;;;12.88;;
79566;SDS011;69030;48.126;7.816;2024-03-08T04:09:42;25.02;;;13.40;;
79566;SDS011;69030;48.126;7.816;2024-03-08T04:12:08;26.65;;;10.95;;
79566;SDS011;69030;48.126;7.816;2024-03-08T04:14:34;22.55;;;8.90;;
79566;SDS011;69030;48.126;7.816;2024-03-08T04:17:00;27.63;;;11.77;;
79566;SDS011;69030;48.126;7.816;2024-03-08T04:19:25;20.13;;;9.65;;
79566;SDS011;69030;48.126;7.816;2024-03-08T04:21:53;26.25;;;9.23;;
79566;SDS011;69030;48.126;7.816;2024-03-08T04:24:18;28.00;;;10.75;;
79566;SDS011;69030;48.126;7.816;2024-03-08T04:26:43;24.23;;;11.15;;
79566;SDS011;69030;48.126;7.816;2024-03-08T04:29:08;23.73;;;10.82;;
79566;SDS011;69030;48.126;7.816;2024-03-08T04:31:34;20.92;;;8.75;;
79566;SDS011;69030;48.126;7.816;2024-03-08T04:34:01;21.58;;;8.88;;
79566;SDS011;69030;48.126;7.816;2024-03-08T04:36:26;28.60;;;10.98;;
79566;SDS011;69030;48.126;7.816;2024-03-08T04:38:55;25.30;;;9.18;;
79566;SDS011;69030;48.126;7.816;2024-03-08T04:41:23;23.42;;;11.07;;
79566;SDS011;69030;48.126;7.816;2024-03-08T04:43:49;22.85;;;10.65;;
79566;SDS011;69030;48.126;7.816;2024-03-08T04:46:14;22.77;;;12.35;;
79566;SDS011;69030;48.126;7.816;2024-03-08T04:48:41;22.70;;;11.50;;
79566;SDS011;69030;48.126;7.816;2024-03-08T04:51:08;25.42;;;12.45;;
79566;SDS011;69030;48.126;7.816;2024-03-08T04:53:34;25.00;;;12.23;;
79566;SDS011;69030;48.126;7.816;2024-03-08T04:56:00;22.92;;;9.65;;
79566;SDS011;69030;48.126;7.816;2024-03-08T04:58:30;24.73;;;11.98;;
79566;SDS011;69030;48.126;7.816;2024-03-08T05:00:56;24.23;;;13.23;;
79566;SDS011;69030;48.126;7.816;2024-03-08T05:03:22;23.77;;;11.50;;
79566;SDS011;69030;48.126;7.816;2024-03-08T05:05:51;20.20;;;11.15;;
79566;SDS011;69030;48.126;7.816;2024-03-08T05:08:18;22.77;;;10.40;;
79566;SDS011;69030;48.126;7.816;2024-03-08T05:10:44;23.00;;;11.07;;
79566;SDS011;69030;48.126;7.816;2024-03-08T05:13:11;26.58;;;11.82;;
79566;SDS011;69030;48.126;7.816;2024-03-08T05:15:38;27.30;;;12.90;;
79566;SDS011;69030;48.126;7.816;2024-03-08T05:18:04;22.70;;;11.68;;
79566;SDS011;69030;48.126;7.816;2024-03-08T05:20:29;23.02;;;11.88;;
79566;SDS011;69030;48.126;7.816;2024-03-08T05:22:56;22.38;;;11.82;;
79566;SDS011;69030;48.126;7.816;2024-03-08T05:25:25;26.17;;;13.98;;
79566;SDS011;69030;48.126;7.816;2024-03-08T05:27:51;23.25;;;12.57;;
79566;SDS011;69030;48.126;7.816;2024-03-08T05:30:17;22.63;;;10.48;;
79566;SDS011;69030;48.126;7.816;2024-03-08T05:32:42;20.60;;;8.65;;
79566;SDS011;69030;48.126;7.816;2024-03-08T05:35:11;24.42;;;10.85;;
79566;SDS011;69030;48.126;7.816;2024-03-08T05:37:37;26.73;;;11.90;;
79566;SDS011;69030;48.126;7.816;2024-03-08T05:40:05;26.08;;;14.20;;
79566;SDS011;69030;48.126;7.816;2024-03-08T05:42:34;27.38;;;13.07;;
79566;SDS011;69030;48.126;7.816;2024-03-08T05:45:03;19.50;;;10.02;;
79566;SDS011;69030;48.126;7.816;2024-03-08T05:47:31;25.58;;;12.57;;
79566;SDS011;69030;48.126;7.816;2024-03-08T05:49:57;24.90;;;11.90;;
79566;SDS011;69030;48.126;7.816;2024-03-08T05:52:24;22.58;;;11.15;;
79566;SDS011;69030;48.126;7.816;2024-03-08T05:54:51;21.55;;;11.65;;
79566;SDS011;69030;48.126;7.816;2024-03-08T05:57:16;26.90;;;11.95;;
79566;SDS011;69030;48.126;7.816;2024-03-08T05:59:42;23.17;;;11.02;;
79566;SDS011;69030;48.126;7.816;2024-03-08T06:02:07;22.58;;;10.35;;
79566;SDS011;69030;48.126;7.816;2024-03-08T06:04:33;25.48;;;10.35;;
79566;SDS011;69030;48.126;7.816;2024-03-08T06:06:58;25.70;;;12.98;;
79566;SDS011;69030;48.126;7.816;2024-03-08T06:09:24;23.27;;;9.70;;
79566;SDS011;69030;48.126;7.816;2024-03-08T06:11:51;23.48;;;12.02;;
79566;SDS011;69030;48.126;7.816;2024-03-08T06:14:17;33.90;;;14.30;;
79566;SDS011;69030;48.126;7.816;2024-03-08T06:16:46;24.80;;;12.05;;
79566;SDS011;69030;48.126;7.816;2024-03-08T06:19:12;32.75;;;11.90;;
79566;SDS011;69030;48.126;7.816;2024-03-08T06:21:38;26.92;;;15.57;;
79566;SDS011;69030;48.126;7.816;2024-03-08T06:24:04;31.83;;;13.25;;
79566;SDS011;69030;48.126;7.816;2024-03-08T06:26:30;28.60;;;11.85;;
79566;SDS011;69030;48.126;7.816;2024-03-08T06:28:55;28.38;;;12.82;;
79566;SDS011;69030;48.126;7.816;2024-03-08T06:31:21;25.33;;;11.68;;
79566;SDS011;69030;48.126;7.816;2024-03-08T06:33:50;29.70;;;13.75;;
79566;SDS011;69030;48.126;7.816;2024-03-08T06:36:16;24.58;;;10.32;;
79566;SDS011;69030;48.126;7.816;2024-03-08T06:38:45;26.08;;;13.30;;
79566;SDS011;69030;48.126;7.816;2024-03-08T06:41:11;28.15;;;11.55;;
79566;SDS011;69030;48.126;7.816;2024-03-08T06:43:41;29.17;;;13.13;;
79566;SDS011;69030;48.126;7.816;2024-03-08T06:46:17;25.10;;;14.70;;
79566;SDS011;69030;48.126;7.816;2024-03-08T06:48:43;23.25;;;12.27;;
79566;SDS011;69030;48.126;7.816;2024-03-08T06:51:08;21.30;;;11.25;;
79566;SDS011;69030;48.126;7.816;2024-03-08T06:53:35;19.00;;;10.00;;
79566;SDS011;69030;48.126;7.816;2024-03-08T06:56:03;23.38;;;11.77;;
79566;SDS011;69030;48.126;7.816;2024-03-08T06:58:29;23.30;;;11.32;;
79566;SDS011;69030;48.126;7.816;2024-03-08T07:00:54;22.73;;;13.15;;
79566;SDS011;69030;48.126;7.816;2024-03-08T07:05:49;21.67;;;10.98;;
79566;SDS011;69030;48.126;7.816;2024-03-08T07:08:14;24.38;;;12.35;;
79566;SDS011;69030;48.126;7.816;2024-03-08T07:10:45;20.58;;;11.52;;
79566;SDS011;69030;48.126;7.816;2024-03-08T07:13:12;23.30;;;11.15;;
79566;SDS011;69030;48.126;7.816;2024-03-08T07:15:38;21.48;;;11.38;;
79566;SDS011;69030;48.126;7.816;2024-03-08T07:18:04;20.50;;;10.27;;
79566;SDS011;69030;48.126;7.816;2024-03-08T07:20:30;23.95;;;11.80;;
79566;SDS011;69030;48.126;7.816;2024-03-08T07:22:56;19.85;;;12.73;;
79566;SDS011;69030;48.126;7.816;2024-03-08T07:25:21;21.05;;;10.65;;
79566;SDS011;69030;48.126;7.816;2024-03-08T07:27:49;23.38;;;13.52;;
79566;SDS011;69030;48.126;7.816;2024-03-08T07:30:16;27.33;;;12.90;;
79566;SDS011;69030;48.126;7.816;2024-03-08T07:33:02;31.48;;;17.85;;
79566;SDS011;69030;48.126;7.816;2024-03-08T07:35:28;27.70;;;15.57;;
79566;SDS011;69030;48.126;7.816;2024-03-08T07:37:54;27.10;;;14.15;;
79566;SDS011;69030;48.126;7.816;2024-03-08T07:40:24;25.25;;;13.32;;
79566;SDS011;69030;48.126;7.816;2024-03-08T07:42:51;24.67;;;11.88;;
79566;SDS011;69030;48.126;7.816;2024-03-08T07:45:16;25.60;;;16.02;;
79566;SDS011;69030;48.126;7.816;2024-03-08T07:47:42;30.75;;;16.58;;
79566;SDS011;69030;48.126;7.816;2024-03-08T07:50:08;25.95;;;14.00;;
79566;SDS011;69030;48.126;7.816;2024-03-08T07:52:34;18.90;;;10.57;;
79566;SDS011;69030;48.126;7.816;2024-03-08T07:55:01;19.98;;;10.20;;
79566;SDS011;69030;48.126;7.816;2024-03-08T07:57:27;26.08;;;14.20;;
79566;SDS011;69030;48.126;7.816;2024-03-08T07:59:52;27.77;;;15.50;;
79566;SDS011;69030;48.126;7.816;2024-03-08T08:02:18;30.42;;;14.48;;
79566;SDS011;69030;48.126;7.816;2024-03-08T08:04:43;23.00;;;14.45;;
79566;SDS011;69030;48.126;7.816;2024-03-08T08:07:10;23.80;;;12.77;;
79566;SDS011;69030;48.126;7.816;2024-03-08T08:09:36;26.95;;;12.20;;
79566;SDS011;69030;48.126;7.816;2024-03-08T08:12:01;26.05;;;13.43;;
79566;SDS011;69030;48.126;7.816;2024-03-08T08:14:28;28.10;;;13.52;;
79566;SDS011;69030;48.126;7.816;2024-03-08T08:16:54;17.48;;;10.38;;
79566;SDS011;69030;48.126;7.816;2024-03-08T08:19:22;21.15;;;11.77;;
79566;SDS011;69030;48.126;7.816;2024-03-08T08:21:47;30.33;;;13.73;;
79566;SDS011;69030;48.126;7.816;2024-03-08T08:24:15;24.38;;;15.43;;
79566;SDS011;69030;48.126;7.816;2024-03-08T08:26:40;23.38;;;11.13;;
79566;SDS011;69030;48.126;7.816;2024-03-08T08:29:06;27.15;;;14.20;;
79566;SDS011;69030;48.126;7.816;2024-03-08T08:31:32;26.20;;;15.05;;
79566;SDS011;69030;48.126;7.816;2024-03-08T08:33:58;21.58;;;11.23;;
79566;SDS011;69030;48.126;7.816;2024-03-08T08:36:24;26.90;;;14.63;;
79566;SDS011;69030;48.126;7.816;2024-03-08T08:38:50;26.77;;;12.13;;
79566;SDS011;69030;48.126;7.816;2024-03-08T08:41:16;18.92;;;10.00;;
79566;SDS011;69030;48.126;7.816;2024-03-08T08:43:42;32.38;;;15.68;;
79566;SDS011;69030;48.126;7.816;2024-03-08T08:46:09;24.40;;;15.55;;
79566;SDS011;69030;48.126;7.816;2024-03-08T08:48:38;27.33;;;13.90;;
79566;SDS011;69030;48.126;7.816;2024-03-08T08:51:10;23.38;;;11.98;;
79566;SDS011;69030;48.126;7.816;2024-03-08T08:53:37;26.27;;;13.25;;
79566;SDS011;69030;48.126;7.816;2024-03-08T08:56:03;26.95;;;13.02;;
79566;SDS011;69030;48.126;7.816;2024-03-08T08:58:29;25.70;;;11.38;;
79566;SDS011;69030;48.126;7.816;2024-03-08T09:00:54;22.75;;;13.23;;
79566;SDS011;69030;48.126;7.816;2024-03-08T09:03:20;26.23;;;14.40;;
79566;SDS011;69030;48.126;7.816;2024-03-08T09:05:45;28.92;;;14.80;;
79566;SDS011;69030;48.126;7.816;2024-03-08T09:08:11;26.10;;;11.55;;
79566;SDS011;69030;48.126;7.816;2024-03-08T09:10:37;25.83;;;14.73;;
79566;SDS011;69030;48.126;7.816;2024-03-08T09:13:04;25.63;;;15.77;;
79566;SDS011;69030;48.126;7.816;2024-03-08T09:15:29;30.38;;;16.58;;
79566;SDS011;69030;48.126;7.816;2024-03-08T09:17:54;27.27;;;14.20;;
79566;SDS011;69030;48.126;7.816;2024-03-08T09:20:20;26.02;;;11.10;;
79566;SDS011;69030;48.126;7.816;2024-03-08T09:22:45;25.77;;;12.93;;
79566;SDS011;69030;48.126;7.816;2024-03-08T09:25:11;28.10;;;16.55;;
79566;SDS011;69030;48.126;7.816;2024-03-08T09:27:36;25.58;;;12.50;;
79566;SDS011;69030;48.126;7.816;2024-03-08T09:30:02;32.47;;;14.25;;
79566;SDS011;69030;48.126;7.816;2024-03-08T09:32:29;26.60;;;11.85;;
79566;SDS011;69030;48.126;7.816;2024-03-08T09:34:55;26.25;;;12.38;;
79566;SDS011;69030;48.126;7.816;2024-03-08T09:37:21;29.77;;;14.32;;
79566;SDS011;69030;48.126;7.816;2024-03-08T09:39:46;27.25;;;12.48;;
79566;SDS011;69030;48.126;7.816;2024-03-08T09:42:12;31.20;;;15.27;;
79566;SDS011;69030;48.126;7.816;2024-03-08T09:47:14;26.05;;;13.88;;
79566;SDS011;69030;48.126;7.816;2024-03-08T09:49:40;24.40;;;12.75;;
79566;SDS011;69030;48.126;7.816;2024-03-08T09:52:07;26.08;;;15.75;;
79566;SDS011;69030;48.126;7.816;2024-03-08T09:54:32;23.77;;;14.07;;
79566;SDS011;69030;48.126;7.816;2024-03-08T09:56:58;23.77;;;12.10;;
79566;SDS011;69030;48.126;7.816;2024-03-08T09:59:24;20.95;;;10.60;;
79566;SDS011;69030;48.126;7.816;2024-03-08T10:02:02;26.42;;;13.35;;
79566;SDS011;69030;48.126;7.816;2024-03-08T10:04:28;20.13;;;10.77;;
79566;SDS011;69030;48.126;7.816;2024-03-08T10:06:55;25.05;;;13.50;;
79566;SDS011;69030;48.126;7.816;2024-03-08T10:09:24;19.60;;;12.10;;
79566;SDS011;69030;48.126;7.816;2024-03-08T10:11:55;18.75;;;11.68;;
79566;SDS011;69030;48.126;7.816;2024-03-08T10:14:21;25.45;;;14.07;;
79566;SDS011;69030;48.126;7.816;2024-03-08T10:16:47;24.83;;;14.35;;
79566;SDS011;69030;48.126;7.816;2024-03-08T10:19:12;29.10;;;14.45;;
79566;SDS011;69030;48.126;7.816;2024-03-08T10:21:50;26.70;;;14.68;;
79566;SDS011;69030;48.126;7.816;2024-03-08T10:24:19;25.88;;;13.50;;
79566;SDS011;69030;48.126;7.816;2024-03-08T10:26:45;24.13;;;12.02;;
79566;SDS011;69030;48.126;7.816;2024-03-08T10:29:11;23.90;;;14.65;;
79566;SDS011;69030;48.126;7.816;2024-03-08T10:31:42;26.33;;;15.07;;
79566;SDS011;69030;48.126;7.816;2024-03-08T10:34:10;23.30;;;11.88;;
79566;SDS011;69030;48.126;7.816;2024-03-08T10:36:35;23.30;;;12.55;;
79566;SDS011;69030;48.126;7.816;2024-03-08T10:39:10;26.95;;;15.10;;
79566;SDS011;69030;48.126;7.816;2024-03-08T10:41:52;20.35;;;10.52;;
79566;SDS011;69030;48.126;7.816;2024-03-08T10:49:38;22.88;;;11.65;;
79566;SDS011;69030;48.126;7.816;2024-03-08T10:52:04;21.27;;;11.32;;
79566;SDS011;69030;48.126;7.816;2024-03-08T10:54:33;19.60;;;12.10;;
79566;SDS011;69030;48.126;7.816;2024-03-08T10:56:59;21.17;;;11.68;;
79566;SDS011;69030;48.126;7.816;2024-03-08T10:59:26;21.40;;;12.82;;
79566;SDS011;69030;48.126;7.816;2024-03-08T11:01:53;18.13;;;12.27;;
79566;SDS011;69030;48.126;7.816;2024-03-08T11:04:19;20.25;;;10.50;;
79566;SDS011;69030;48.126;7.816;2024-03-08T11:06:50;19.58;;;12.40;;
79566;SDS011;69030;48.126;7.816;2024-03-08T11:14:59;22.67;;;11.95;;
79566;SDS011;69030;48.126;7.816;2024-03-08T11:19:57;18.92;;;11.95;;
79566;SDS011;69030;48.126;7.816;2024-03-08T11:22:32;19.90;;;10.38;;
79566;SDS011;69030;48.126;7.816;2024-03-08T11:31:44;19.35;;;12.10;;
79566;SDS011;69030;48.126;7.816;2024-03-08T11:34:15;18.92;;;10.77;;
79566;SDS011;69030;48.126;7.816;2024-03-08T11:36:41;15.60;;;9.15;;
79566;SDS011;69030;48.126;7.816;2024-03-08T11:39:07;19.52;;;11.23;;
79566;SDS011;69030;48.126;7.816;2024-03-08T11:41:39;18.02;;;12.13;;
79566;SDS011;69030;48.126;7.816;2024-03-08T11:44:11;16.88;;;10.13;;
79566;SDS011;69030;48.126;7.816;2024-03-08T11:49:42;19.50;;;10.80;;
79566;SDS011;69030;48.126;7.816;2024-03-08T11:52:19;18.90;;;11.55;;
79566;SDS011;69030;48.126;7.816;2024-03-08T11:54:52;16.92;;;10.80;;
79566;SDS011;69030;48.126;7.816;2024-03-08T11:57:24;16.98;;;11.80;;
79566;SDS011;69030;48.126;7.816;2024-03-08T11:59:53;17.70;;;9.73;;
79566;SDS011;69030;48.126;7.816;2024-03-08T12:02:35;16.95;;;11.20;;
79566;SDS011;69030;48.126;7.816;2024-03-08T12:05:07;19.60;;;11.38;;
79566;SDS011;69030;48.126;7.816;2024-03-08T12:07:41;16.92;;;10.10;;
79566;SDS011;69030;48.126;7.816;2024-03-08T12:10:17;16.40;;;9.95;;
79566;SDS011;69030;48.126;7.816;2024-03-08T12:13:04;16.17;;;10.65;;
79566;SDS011;69030;48.126;7.816;2024-03-08T12:19:12;20.52;;;10.50;;
79566;SDS011;69030;48.126;7.816;2024-03-08T12:22:00;14.40;;;9.68;;
79566;SDS011;69030;48.126;7.816;2024-03-08T12:25:06;15.65;;;9.20;;
79566;SDS011;69030;48.126;7.816;2024-03-08T12:27:35;13.35;;;8.82;;
79566;SDS011;69030;48.126;7.816;2024-03-08T12:32:59;14.38;;;10.45;;
79566;SDS011;69030;48.126;7.816;2024-03-08T12:35:29;16.33;;;8.57;;
79566;SDS011;69030;48.126;7.816;2024-03-08T12:38:12;16.35;;;9.75;;
79566;SDS011;69030;48.126;7.816;2024-03-08T12:40:59;12.63;;;8.30;;
79566;SDS011;69030;48.126;7.816;2024-03-08T12:43:28;13.85;;;8.60;;
79566;SDS011;69030;48.126;7.816;2024-03-08T12:46:04;16.17;;;10.65;;
79566;SDS011;69030;48.126;7.816;2024-03-08T12:48:33;15.40;;;7.55;;
79566;SDS011;69030;48.126;7.816;2024-03-08T12:51:06;16.20;;;8.50;;
79566;SDS011;69030;48.126;7.816;2024-03-08T12:53:35;12.23;;;8.88;;
79566;SDS011;69030;48.126;7.816;2024-03-08T12:56:02;13.70;;;9.43;;
79566;SDS011;69030;48.126;7.816;2024-03-08T12:58:32;8.43;;;5.75;;
79566;SDS011;69030;48.126;7.816;2024-03-08T13:00:58;14.13;;;8.23;;
79566;SDS011;69030;48.126;7.816;2024-03-08T13:03:26;12.90;;;8.23;;
79566;SDS011;69030;48.126;7.816;2024-03-08T13:05:58;15.93;;;10.52;;
79566;SDS011;69030;48.126;7.816;2024-03-08T13:08:36;14.77;;;9.02;;
79566;SDS011;69030;48.126;7.816;2024-03-08T13:11:05;15.65;;;8.18;;
79566;SDS011;69030;48.126;7.816;2024-03-08T13:13:35;14.38;;;8.43;;
79566;SDS011;69030;48.126;7.816;2024-03-08T13:16:02;13.80;;;8.70;;
79566;SDS011;69030;48.126;7.816;2024-03-08T13:18:34;10.75;;;7.47;;
79566;SDS011;69030;48.126;7.816;2024-03-08T13:21:01;10.95;;;5.70;;
79566;SDS011;69030;48.126;7.816;2024-03-08T13:23:34;20.10;;;9.75;;
79566;SDS011;69030;48.126;7.816;2024-03-08T13:26:10;18.38;;;11.20;;
79566;SDS011;69030;48.126;7.816;2024-03-08T13:28:43;24.20;;;14.77;;
79566;SDS011;69030;48.126;7.816;2024-03-08T13:31:29;19.33;;;10.10;;
79566;SDS011;69030;48.126;7.816;2024-03-08T13:34:10;15.70;;;8.70;;
79566;SDS011;69030;48.126;7.816;2024-03-08T13:36:36;20.45;;;10.52;;
79566;SDS011;69030;48.126;7.816;2024-03-08T13:39:07;24.15;;;14.07;;
79566;SDS011;69030;48.126;7.816;2024-03-08T13:41:41;20.80;;;10.52;;
79566;SDS011;69030;48.126;7.816;2024-03-08T13:44:10;15.70;;;8.93;;
79566;SDS011;69030;48.126;7.816;2024-03-08T13:46:35;18.92;;;11.20;;
79566;SDS011;69030;48.126;7.816;2024-03-08T13:49:05;12.98;;;7.30;;
79566;SDS011;69030;48.126;7.816;2024-03-08T13:51:32;18.20;;;9.50;;
79566;SDS011;69030;48.126;7.816;2024-03-08T13:53:59;13.07;;;8.07;;
79566;SDS011;69030;48.126;7.816;2024-03-08T13:56:32;13.02;;;8.50;;
79566;SDS011;69030;48.126;7.816;2024-03-08T13:58:57;12.02;;;7.43;;
79566;SDS011;69030;48.126;7.816;2024-03-08T14:01:23;13.75;;;9.48;;
79566;SDS011;69030;48.126;7.816;2024-03-08T14:03:58;11.88;;;6.65;;
79566;SDS011;69030;48.126;7.816;2024-03-08T14:06:24;13.68;;;8.82;;
79566;SDS011;69030;48.126;7.816;2024-03-08T14:09:14;18.08;;;9.15;;
79566;SDS011;69030;48.126;7.816;2024-03-08T14:11:44;13.57;;;8.15;;
79566;SDS011;69030;48.126;7.816;2024-03-08T14:14:11;16.77;;;10.45;;
79566;SDS011;69030;48.126;7.816;2024-03-08T14:16:41;15.15;;;8.68;;
79566;SDS011;69030;48.126;7.816;2024-03-08T14:19:16;14.55;;;9.27;;
79566;SDS011;69030;48.126;7.816;2024-03-08T14:21:55;13.73;;;8.60;;
79566;SDS011;69030;48.126;7.816;2024-03-08T14:24:26;20.83;;;6.82;;
79566;SDS011;69030;48.126;7.816;2024-03-08T14:26:51;13.80;;;7.88;;
79566;SDS011;69030;48.126;7.816;2024-03-08T14:29:18;11.73;;;6.97;;
79566;SDS011;69030;48.126;7.816;2024-03-08T14:31:44;11.48;;;8.43;;
79566;SDS011;69030;48.126;7.816;2024-03-08T14:34:10;14.27;;;10.10;;
79566;SDS011;69030;48.126;7.816;2024-03-08T14:36:37;16.90;;;8.73;;
79566;SDS011;69030;48.126;7.816;2024-03-08T14:39:03;12.55;;;8.45;;
79566;SDS011;69030;48.126;7.816;2024-03-08T14:41:28;15.05;;;9.15;;
79566;SDS011;69030;48.126;7.816;2024-03-08T14:43:54;12.25;;;7.10;;
79566;SDS011;69030;48.126;7.816;2024-03-08T14:46:22;14.70;;;8.75;;
79566;SDS011;69030;48.126;7.816;2024-03-08T14:48:48;9.15;;;5.47;;
79566;SDS011;69030;48.126;7.816;2024-03-08T14:51:17;11.32;;;6.75;;
79566;SDS011;69030;48.126;7.816;2024-03-08T14:53:45;12.23;;;6.18;;
79566;SDS011;69030;48.126;7.816;2024-03-08T14:56:11;13.13;;;6.70;;
79566;SDS011;69030;48.126;7.816;2024-03-08T14:58:43;11.75;;;7.80;;
79566;SDS011;69030;48.126;7.816;2024-03-08T15:01:10;12.20;;;7.30;;
79566;SDS011;69030;48.126;7.816;2024-03-08T15:03:38;11.98;;;8.20;;
79566;SDS011;69030;48.126;7.816;2024-03-08T15:06:04;11.80;;;6.35;;
79566;SDS011;69030;48.126;7.816;2024-03-08T15:08:37;13.15;;;7.95;;